Time;durP1;ratioP1;P1;durP2;ratioP2;P2;SDS_P1;SDS_P2;PMS_P1;PMS_P2;Temp;Humidity;BMP_temperature;BMP_pressure;BME280_temperature;BME280_humidity;BME280_pressure;Samples;Min_cycle;Max_cycle;Signal;HPM_P1;HPM_P2
2022/11/28 00:00:46;;;;;;;62.10;26.00;;;;;;;-1.00;100.00;99419.55;214139;1310;22477;-75
2022/11/28 00:05:48;;;;;;;59.40;28.20;;;;;;;-0.99;100.00;99415.75;214244;1309;25494;-73
2022/11/28 00:10:50;;;;;;;63.90;27.20;;;;;;;-0.98;100.00;99408.56;214313;1310;25340;-76
2022/11/28 00:15:56;;;;;;;60.90;29.30;;;;;;;-0.90;100.00;99405.47;214108;1309;22474;-74
2022/11/28 00:21:11;;;;;;;59.90;29.00;;;;;;;-0.82;100.00;99404.83;214264;1310;22638;-75
2022/11/28 00:26:25;;;;;;;55.40;27.00;;;;;;;-0.78;100.00;99396.07;214168;1310;22519;-74
2022/11/28 00:31:35;;;;;;;70.90;32.40;;;;;;;-0.77;100.00;99400.59;214279;1310;24310;-73
2022/11/28 00:36:38;;;;;;;71.80;32.90;;;;;;;-0.76;100.00;99396.48;214078;1309;24243;-75
2022/11/28 00:41:40;;;;;;;80.20;34.80;;;;;;;-0.71;100.00;99404.42;213993;1310;24430;-73
2022/11/28 00:46:42;;;;;;;59.10;28.20;;;;;;;-0.67;100.00;99389.70;214078;1310;25382;-74
2022/11/28 00:51:44;;;;;;;67.50;28.70;;;;;;;-0.59;100.00;99383.36;213980;1310;24299;-74
2022/11/28 00:56:46;;;;;;;52.40;27.00;;;;;;;-0.53;100.00;99378.91;214361;1309;22474;-75
2022/11/28 01:01:48;;;;;;;50.70;23.60;;;;;;;-0.46;100.00;99378.46;214043;1307;22606;-75
2022/11/28 01:06:50;;;;;;;52.40;25.80;;;;;;;-0.35;100.00;99374.19;214307;1310;24514;-74
2022/11/28 01:11:53;;;;;;;45.20;23.00;;;;;;;-0.26;100.00;99370.46;214161;1310;25518;-76
2022/11/28 01:16:55;;;;;;;54.30;26.20;;;;;;;-0.18;100.00;99369.89;214155;1309;22729;-74
2022/11/28 01:21:57;;;;;;;60.10;27.30;;;;;;;-0.07;100.00;99370.48;214208;1310;25282;-74
2022/11/28 01:26:59;;;;;;;57.30;26.30;;;;;;;0.02;100.00;99378.27;214220;1310;24287;-74
2022/11/28 01:32:00;;;;;;;60.30;29.90;;;;;;;0.10;100.00;99376.67;214101;1310;22470;-74
2022/11/28 01:37:02;;;;;;;69.30;32.20;;;;;;;0.20;100.00;99370.89;214113;1309;22557;-75
2022/11/28 01:42:04;;;;;;;59.30;29.40;;;;;;;0.32;100.00;99356.52;214104;1310;22531;-74
2022/11/28 01:47:06;;;;;;;73.70;33.80;;;;;;;0.43;100.00;99343.60;214166;1310;25580;-76
2022/11/28 01:52:14;;;;;;;65.00;31.90;;;;;;;0.53;100.00;99340.69;214244;1310;23534;-74
2022/11/28 01:57:19;;;;;;;65.30;32.30;;;;;;;0.57;100.00;99336.41;214077;1310;22543;-74
2022/11/28 02:02:43;;;;;;;66.60;33.20;;;;;;;0.62;100.00;99324.14;214133;1310;22485;-74
2022/11/28 02:07:46;;;;;;;69.40;32.10;;;;;;;0.71;100.00;99316.59;214017;1310;25182;-73
2022/11/28 02:12:58;;;;;;;61.50;30.80;;;;;;;0.79;100.00;99314.29;214036;1309;22478;-73
2022/11/28 02:18:18;;;;;;;67.50;30.70;;;;;;;0.83;100.00;99307.20;214185;1310;25267;-73
2022/11/28 02:23:45;;;;;;;70.90;30.80;;;;;;;0.91;100.00;99304.92;214071;1310;25283;-74
2022/11/28 02:29:19;;;;;;;65.60;32.10;;;;;;;0.95;100.00;99298.46;214254;1310;22482;-74
2022/11/28 02:34:35;;;;;;;70.00;34.10;;;;;;;0.98;100.00;99293.19;214300;1310;26446;-74
2022/11/28 02:39:54;;;;;;;65.70;31.90;;;;;;;0.98;100.00;99290.23;214077;1310;23251;-74
2022/11/28 02:45:23;;;;;;;64.20;31.90;;;;;;;0.99;100.00;99285.84;214147;1310;23703;-75
2022/11/28 02:50:31;;;;;;;68.30;32.80;;;;;;;1.02;100.00;99281.64;214081;1309;24269;-75
2022/11/28 02:55:40;;;;;;;70.10;34.80;;;;;;;1.05;100.00;99280.89;214205;1308;24737;-75
2022/11/28 03:00:45;;;;;;;70.40;32.30;;;;;;;1.09;100.00;99277.54;214288;1309;25267;-75
2022/11/28 03:06:12;;;;;;;54.80;28.30;;;;;;;1.12;100.00;99274.80;214314;1310;25299;-75
2022/11/28 03:11:28;;;;;;;53.30;26.10;;;;;;;1.12;100.00;99273.90;214185;1310;22465;-74
2022/11/28 03:16:43;;;;;;;49.00;23.70;;;;;;;1.13;100.00;99266.05;214057;1310;25423;-74
2022/11/28 03:21:52;;;;;;;45.40;23.10;;;;;;;1.08;100.00;99256.80;214153;1305;22588;-75
2022/11/28 03:27:21;;;;;;;47.60;23.00;;;;;;;1.05;100.00;99251.27;214071;1310;25464;-75
2022/11/28 03:32:36;;;;;;;40.40;20.70;;;;;;;1.05;100.00;99242.21;214195;1309;25475;-73
2022/11/28 03:37:50;;;;;;;48.00;23.90;;;;;;;1.06;100.00;99237.45;214122;1309;22491;-74
2022/11/28 03:42:58;;;;;;;53.10;25.60;;;;;;;1.03;100.00;99235.56;214080;1310;22467;-75
2022/11/28 03:48:05;;;;;;;55.10;26.50;;;;;;;1.03;100.00;99236.05;214044;1310;22479;-75
2022/11/28 03:53:15;;;;;;;54.50;26.90;;;;;;;1.01;100.00;99234.04;214214;1310;25335;-74
2022/11/28 03:58:28;;;;;;;46.10;25.60;;;;;;;0.98;100.00;99227.98;214038;1310;23066;-74
2022/11/28 04:03:50;;;;;;;53.20;28.30;;;;;;;0.95;100.00;99236.06;214207;1304;22779;-75
2022/11/28 04:09:08;;;;;;;67.10;36.00;;;;;;;0.98;100.00;99235.39;214018;1310;22617;-74
2022/11/28 04:14:23;;;;;;;64.20;30.50;;;;;;;0.97;100.00;99234.38;214206;1303;23731;-75
2022/11/28 04:19:34;;;;;;;59.30;28.60;;;;;;;0.98;100.00;99232.52;214294;1310;23008;-75
2022/11/28 04:24:41;;;;;;;52.00;24.00;;;;;;;1.01;100.00;99233.14;214116;1310;25350;-74
2022/11/28 04:29:47;;;;;;;44.30;23.40;;;;;;;1.04;100.00;99233.98;214150;1310;24092;-74
2022/11/28 04:34:58;;;;;;;46.90;22.00;;;;;;;1.07;100.00;99232.69;214370;1310;25269;-75
2022/11/28 04:40:01;;;;;;;43.50;21.60;;;;;;;1.05;100.00;99241.77;214193;1310;25283;-74
2022/11/28 04:45:27;;;;;;;45.20;22.40;;;;;;;1.04;100.00;99238.08;214381;1310;23740;-75
2022/11/28 04:50:36;;;;;;;40.60;19.90;;;;;;;1.07;100.00;99238.16;214029;1308;22958;-75
2022/11/28 04:56:00;;;;;;;45.10;22.10;;;;;;;1.05;100.00;99242.95;214020;1310;22525;-74
2022/11/28 05:01:06;;;;;;;46.20;22.50;;;;;;;1.01;100.00;99246.50;214190;1310;22530;-75
2022/11/28 05:06:08;;;;;;;42.20;20.20;;;;;;;1.01;100.00;99239.35;214195;1308;22473;-75
2022/11/28 05:11:10;;;;;;;41.40;21.80;;;;;;;0.99;100.00;99242.26;214063;1307;24470;-73
2022/11/28 05:16:13;;;;;;;49.90;23.70;;;;;;;0.97;100.00;99239.55;214200;1310;23422;-74
2022/11/28 05:21:15;;;;;;;37.30;19.20;;;;;;;0.97;100.00;99239.30;214306;1310;23770;-75
2022/11/28 05:26:20;;;;;;;49.60;23.00;;;;;;;0.99;100.00;99238.52;214323;1310;22598;-74
2022/11/28 05:31:22;;;;;;;44.10;23.00;;;;;;;1.03;100.00;99232.23;213998;1310;25488;-74
2022/11/28 05:36:23;;;;;;;45.80;22.80;;;;;;;1.06;100.00;99234.96;214280;1310;22523;-74
2022/11/28 05:41:29;;;;;;;36.90;19.00;;;;;;;1.10;100.00;99236.86;214164;1310;22519;-74
2022/11/28 05:46:31;;;;;;;44.70;22.30;;;;;;;1.14;100.00;99235.88;214067;1309;22653;-75
2022/11/28 05:51:33;;;;;;;48.00;23.10;;;;;;;1.16;100.00;99234.66;214048;1310;22469;-75
2022/11/28 05:56:35;;;;;;;47.60;23.70;;;;;;;1.15;100.00;99231.58;214261;1310;24364;-75
2022/11/28 06:01:43;;;;;;;46.70;24.30;;;;;;;1.16;100.00;99222.08;214127;1309;22478;-75
2022/11/28 06:06:45;;;;;;;39.40;20.60;;;;;;;1.18;100.00;99222.65;214053;1309;22986;-74
2022/11/28 06:11:46;;;;;;;38.70;21.70;;;;;;;1.21;100.00;99223.09;214287;1310;22669;-75
2022/11/28 06:16:48;;;;;;;49.30;24.40;;;;;;;1.27;100.00;99225.28;214202;1305;22479;-74
2022/11/28 06:21:50;;;;;;;42.80;22.40;;;;;;;1.29;100.00;99223.11;214219;1304;22492;-74
2022/11/28 06:26:53;;;;;;;49.20;25.30;;;;;;;1.31;100.00;99225.73;214061;1310;22757;-74
2022/11/28 06:31:55;;;;;;;46.70;24.00;;;;;;;1.35;100.00;99224.11;214311;1310;25271;-75
2022/11/28 06:36:58;;;;;;;50.10;25.70;;;;;;;1.37;100.00;99221.29;214596;1294;25239;-73
2022/11/28 06:41:59;;;;;;;51.20;25.80;;;;;;;1.39;100.00;99226.86;214331;1298;22501;-73
2022/11/28 06:47:01;;;;;;;47.10;23.10;;;;;;;1.41;100.00;99224.23;214185;1287;22485;-73
2022/11/28 06:52:03;;;;;;;53.80;28.90;;;;;;;1.41;100.00;99224.81;214394;1288;22561;-73
2022/11/28 06:57:05;;;;;;;50.60;26.50;;;;;;;1.40;100.00;99220.69;214402;1284;25531;-73
2022/11/28 07:02:10;;;;;;;48.40;21.80;;;;;;;1.46;100.00;99224.52;214572;1284;22502;-74
2022/11/28 07:07:12;;;;;;;54.00;28.40;;;;;;;1.50;100.00;99224.09;214712;1284;22462;-74
2022/11/28 07:12:17;;;;;;;65.30;32.20;;;;;;;1.54;100.00;99220.52;214837;1284;140575;-73
2022/11/28 07:17:19;;;;;;;58.30;29.50;;;;;;;1.57;100.00;99215.16;214696;1284;139429;-74
2022/11/28 07:22:21;;;;;;;42.10;24.10;;;;;;;1.60;100.00;99210.30;214397;1284;138871;-74
2022/11/28 07:27:23;;;;;;;52.10;28.20;;;;;;;1.67;100.00;99209.14;214417;1288;139851;-73
2022/11/28 07:32:25;;;;;;;50.60;27.30;;;;;;;1.75;100.00;99204.46;214414;1286;26318;-74
2022/11/28 07:37:27;;;;;;;55.30;28.20;;;;;;;1.82;100.00;99200.67;214346;1285;138898;-74
2022/11/28 07:42:28;;;;;;;56.30;29.90;;;;;;;1.91;100.00;99194.17;214271;1281;139665;-74
2022/11/28 07:47:36;;;;;;;53.00;27.70;;;;;;;2.03;100.00;99187.69;214750;1278;138236;-75
2022/11/28 07:52:38;;;;;;;59.40;30.50;;;;;;;2.12;100.00;99185.78;214533;1287;138873;-76
2022/11/28 07:57:40;;;;;;;67.20;32.00;;;;;;;2.21;100.00;99185.02;214468;1288;138893;-74
2022/11/28 08:02:42;;;;;;;58.10;30.10;;;;;;;2.32;100.00;99181.92;214735;1284;23778;-72
2022/11/28 08:07:44;;;;;;;60.90;32.30;;;;;;;2.41;100.00;99178.66;214134;1292;138584;-73
2022/11/28 08:12:46;;;;;;;52.70;29.70;;;;;;;2.53;100.00;99180.12;215003;1284;138692;-73
2022/11/28 08:17:48;;;;;;;51.90;26.00;;;;;;;2.63;100.00;99172.36;214660;1284;138983;-73
2022/11/28 08:22:50;;;;;;;50.20;26.50;;;;;;;2.70;100.00;99174.48;214440;1288;138951;-73
2022/11/28 08:27:52;;;;;;;52.50;27.50;;;;;;;2.78;100.00;99180.00;214323;1284;138832;-73
2022/11/28 08:38:18;;;;;;;46.40;23.20;;;;;;;2.82;100.00;99177.70;214491;1284;22953;-73
2022/11/28 08:43:20;;;;;;;53.10;29.60;;;;;;;2.87;100.00;99177.34;214455;1285;139443;-73
2022/11/28 08:48:22;;;;;;;49.10;27.40;;;;;;;2.96;100.00;99178.38;214362;1292;138887;-73
2022/11/28 08:53:23;;;;;;;53.10;29.60;;;;;;;3.05;100.00;99176.59;214407;1284;138963;-71
2022/11/28 08:58:26;;;;;;;52.60;28.60;;;;;;;3.17;100.00;99178.72;214312;1288;138957;-72
2022/11/28 09:03:27;;;;;;;52.40;28.10;;;;;;;3.27;100.00;99172.89;214177;1287;139211;-71
2022/11/28 09:08:29;;;;;;;46.10;24.70;;;;;;;3.34;100.00;99173.23;214371;1287;25455;-72
2022/11/28 09:13:31;;;;;;;49.50;25.30;;;;;;;3.41;100.00;99167.96;214874;1292;138869;-73
2022/11/28 09:18:34;;;;;;;45.80;23.70;;;;;;;3.53;100.00;99158.74;214267;1293;138951;-73
2022/11/28 09:23:37;;;;;;;43.70;24.60;;;;;;;3.70;100.00;99153.27;213889;1310;138891;-73
2022/11/28 09:28:39;;;;;;;34.30;20.40;;;;;;;3.91;100.00;99154.95;214263;1288;139071;-74
2022/11/28 09:33:42;;;;;;;40.50;23.60;;;;;;;4.05;100.00;99155.27;214365;1286;138883;-73
2022/11/28 09:38:45;;;;;;;41.30;22.10;;;;;;;4.13;100.00;99146.72;214308;1294;22631;-73
2022/11/28 09:43:49;;;;;;;40.30;21.10;;;;;;;4.17;99.69;99148.14;214187;1301;138493;-73
2022/11/28 09:49:00;;;;;;;35.50;18.20;;;;;;;4.23;99.74;99145.91;214195;1284;139205;-73
2022/11/28 09:54:18;;;;;;;34.50;19.70;;;;;;;4.33;99.80;99138.13;214339;1285;138706;-73
2022/11/28 09:59:28;;;;;;;36.40;20.70;;;;;;;4.45;99.65;99130.38;214222;1287;138737;-72
2022/11/28 10:04:39;;;;;;;38.10;21.50;;;;;;;4.57;99.62;99124.69;214177;1296;139124;-73
2022/11/28 10:10:11;;;;;;;36.70;20.20;;;;;;;4.65;99.28;99115.42;214549;1288;139099;-72
2022/11/28 10:15:32;;;;;;;41.20;21.30;;;;;;;4.70;98.73;99110.98;214967;1289;25245;-75
2022/11/28 10:20:42;;;;;;;39.30;20.90;;;;;;;4.78;99.11;99099.66;214371;1284;23181;-73
2022/11/28 10:25:48;;;;;;;;;;;;;;;4.89;98.99;99097.23;214164;1281;138409;-73
2022/11/28 10:31:18;;;;;;;28.30;16.80;;;;;;;4.93;98.22;99092.27;214308;1303;124651;-73
2022/11/28 10:36:26;;;;;;;34.20;18.50;;;;;;;5.01;98.19;99094.69;214249;1310;139426;-73
2022/11/28 10:41:35;;;;;;;26.90;15.30;;;;;;;5.12;97.82;99091.48;214177;1296;174733;-74
2022/11/28 10:46:46;;;;;;;30.90;17.10;;;;;;;5.17;97.09;99079.83;214349;1305;138685;-74
2022/11/28 10:52:30;;;;;;;31.30;17.90;;;;;;;5.23;96.80;99077.83;214321;1310;138686;-74
2022/11/28 10:57:47;;;;;;;32.10;17.60;;;;;;;5.29;96.63;99073.61;214000;1294;138677;-74
2022/11/28 11:02:55;;;;;;;29.20;17.50;;;;;;;5.39;96.51;99066.30;214087;1312;24481;-73
2022/11/28 11:08:19;;;;;;;29.10;17.00;;;;;;;5.51;96.47;99064.73;214086;1304;138394;-74
2022/11/28 11:13:26;;;;;;;28.30;16.60;;;;;;;5.56;95.89;99066.98;215064;1284;138557;-74
2022/11/28 11:18:29;;;;;;;26.80;16.10;;;;;;;5.61;95.68;99058.27;214344;1295;139075;-73
2022/11/28 11:23:31;;;;;;;32.30;17.90;;;;;;;5.70;95.28;99055.29;214188;1288;138805;-74
2022/11/28 11:28:40;;;;;;;23.70;14.20;;;;;;;5.82;95.44;99053.08;214506;1287;139307;-74
2022/11/28 11:33:43;;;;;;;29.00;15.90;;;;;;;5.92;94.96;99052.05;214319;1308;138821;-73
2022/11/28 11:38:44;;;;;;;31.60;16.60;;;;;;;5.99;94.61;99053.42;214219;1310;23822;-73
2022/11/28 11:43:46;;;;;;;20.30;12.50;;;;;;;6.11;94.79;99049.77;214306;1310;138477;-74
2022/11/28 11:48:52;;;;;;;29.40;15.90;;;;;;;6.22;94.40;99053.11;214293;1295;138544;-74
2022/11/28 11:54:12;;;;;;;29.50;16.10;;;;;;;6.30;94.13;99045.31;214350;1304;138760;-74
2022/11/28 11:59:18;;;;;;;28.60;15.90;;;;;;;6.42;93.86;99043.75;214090;1287;138799;-74
2022/11/28 12:04:29;;;;;;;26.70;15.30;;;;;;;6.50;93.38;99037.71;214155;1305;138738;-74
2022/11/28 12:09:50;;;;;;;23.80;14.10;;;;;;;6.58;93.18;99036.36;214383;1310;138818;-75
2022/11/28 12:14:55;;;;;;;26.00;12.80;;;;;;;6.64;93.08;99028.95;215003;1297;22523;-76
2022/11/28 12:20:16;;;;;;;26.40;15.30;;;;;;;6.64;92.43;99026.82;214225;1284;138513;-76
2022/11/28 12:25:17;;;;;;;;;;;;;;;6.65;92.25;99026.57;214183;1310;138727;-75
2022/11/28 12:30:58;;;;;;;21.80;11.80;;;;;;;6.65;92.03;99023.05;214364;1289;125388;-74
2022/11/28 12:36:13;;;;;;;25.40;13.20;;;;;;;6.54;91.52;99018.24;214082;1310;139216;-73
2022/11/28 12:41:36;;;;;;;28.60;13.60;;;;;;;6.45;91.55;99013.55;214266;1310;138740;-74
2022/11/28 12:46:38;;;;;;;20.70;12.00;;;;;;;6.50;91.41;99012.04;214389;1310;138798;-73
2022/11/28 12:52:21;;;;;;;21.20;11.00;;;;;;;6.53;90.86;99006.59;214508;1309;139521;-73
2022/11/28 12:57:32;;;;;;;16.80;9.00;;;;;;;6.54;90.13;98996.16;214427;1304;138664;-74
2022/11/28 13:02:46;;;;;;;21.90;9.50;;;;;;;6.51;89.81;98993.84;214320;1295;22483;-74
2022/11/28 13:08:00;;;;;;;27.10;16.20;;;;;;;6.40;89.50;98984.29;214299;1310;138791;-73
2022/11/28 13:13:05;;;;;;;27.80;15.60;;;;;;;6.21;89.58;98983.41;214676;1288;138539;-73
2022/11/28 13:18:24;;;;;;;30.20;16.80;;;;;;;6.12;89.95;98984.13;214266;1304;138769;-73
2022/11/28 13:23:51;;;;;;;32.40;18.20;;;;;;;6.10;90.14;98977.88;214031;1311;138864;-74
2022/11/28 13:29:11;;;;;;;31.10;17.40;;;;;;;6.10;90.66;98977.35;214248;1282;138777;-76
2022/11/28 13:34:17;;;;;;;32.70;17.90;;;;;;;6.01;90.32;98972.16;214476;1287;138815;-72
2022/11/28 13:39:34;;;;;;;37.20;21.60;;;;;;;5.85;90.30;98973.67;214420;1286;139099;-72
2022/11/28 13:44:55;;;;;;;39.00;21.20;;;;;;;5.72;90.40;98977.73;214359;1295;23159;-73
2022/11/28 13:50:29;;;;;;;40.50;22.70;;;;;;;5.53;90.42;98968.71;214135;1294;138452;-73
2022/11/28 13:55:47;;;;;;;36.80;20.30;;;;;;;5.35;90.56;98970.45;214246;1289;138538;-72
2022/11/28 14:01:10;;;;;;;37.10;20.40;;;;;;;5.16;90.62;98971.25;214322;1278;138713;-73
2022/11/28 14:06:17;;;;;;;34.00;19.80;;;;;;;5.00;91.11;98972.64;214393;1302;138799;-73
2022/11/28 14:11:46;;;;;;;40.20;20.90;;;;;;;4.82;90.99;98969.19;214708;1300;139173;-73
2022/11/28 14:17:10;;;;;;;34.20;17.60;;;;;;;4.65;91.22;98965.81;214698;1284;139163;-73
2022/11/28 14:22:27;;;;;;;44.20;20.50;;;;;;;4.52;91.39;98967.55;214394;1285;139323;-72
2022/11/28 14:27:33;;;;;;;40.80;21.20;;;;;;;4.38;91.62;98962.73;214643;1310;138730;-73
2022/11/28 14:32:39;;;;;;;41.20;19.60;;;;;;;4.28;91.71;98963.11;214709;1281;22526;-75
2022/11/28 14:37:59;;;;;;;40.40;22.00;;;;;;;4.17;92.01;98965.06;214567;1289;138958;-74
2022/11/28 14:43:28;;;;;;;45.50;24.30;;;;;;;4.06;91.95;98962.41;214733;1281;139297;-75
2022/11/28 14:48:30;;;;;;;48.50;23.00;;;;;;;3.93;92.03;98961.13;214526;1285;138881;-71
2022/11/28 14:53:33;;;;;;;50.20;24.80;;;;;;;3.75;92.05;98964.91;214394;1280;139373;-73
2022/11/28 14:58:35;;;;;;;47.10;24.30;;;;;;;3.59;92.27;98963.61;214362;1281;138813;-74
2022/11/28 15:03:58;;;;;;;49.20;24.50;;;;;;;3.44;92.46;98967.64;214224;1310;22534;-73
2022/11/28 15:09:19;;;;;;;59.50;31.50;;;;;;;3.28;92.45;98971.35;214247;1285;25494;-75
2022/11/28 15:14:24;;;;;;;57.00;28.20;;;;;;;3.10;92.80;98971.39;213890;1310;25387;-75
2022/11/28 15:19:32;;;;;;;66.00;31.90;;;;;;;2.93;92.74;98971.48;214033;1310;25362;-74
2022/11/28 15:24:36;;;;;;;63.40;29.40;;;;;;;2.76;92.87;98971.10;214027;1310;22472;-73
2022/11/28 15:29:38;;;;;;;55.80;26.60;;;;;;;2.60;93.02;98977.23;214129;1310;22521;-74
2022/11/28 15:34:40;;;;;;;53.50;27.20;;;;;;;2.49;93.33;98979.31;214012;1310;22463;-74
2022/11/28 15:39:48;;;;;;;52.30;25.60;;;;;;;2.38;93.31;98982.02;213998;1310;25235;-75
2022/11/28 15:44:57;;;;;;;56.50;27.20;;;;;;;2.29;93.60;98983.35;214051;1310;22482;-74
2022/11/28 15:50:08;;;;;;;38.80;18.90;;;;;;;2.20;93.85;98980.77;214048;1310;24545;-74
2022/11/28 15:55:15;;;;;;;47.90;24.10;;;;;;;2.18;94.16;98982.70;214162;1310;24884;-74
2022/11/28 16:00:20;;;;;;;43.70;21.90;;;;;;;2.25;94.42;98991.39;214033;1310;22710;-74
2022/11/28 16:05:23;;;;;;;41.20;19.90;;;;;;;2.26;94.18;98988.92;214066;1307;24273;-74
2022/11/28 16:10:31;;;;;;;35.50;18.20;;;;;;;2.22;94.11;98991.34;213973;1310;24738;-73
2022/11/28 16:15:33;;;;;;;40.20;20.10;;;;;;;2.19;94.13;98997.49;214154;1310;22472;-75
2022/11/28 16:20:36;;;;;;;41.00;20.60;;;;;;;2.15;94.16;98996.02;214120;1310;22532;-74
2022/11/28 16:25:38;;;;;;;29.40;13.90;;;;;;;2.11;94.18;98993.50;214184;1305;22473;-75
2022/11/28 16:30:47;;;;;;;39.60;20.00;;;;;;;2.13;94.46;98996.29;214016;1304;22584;-74
2022/11/28 16:35:49;;;;;;;41.50;20.40;;;;;;;2.14;94.35;99002.17;214029;1311;22844;-74
2022/11/28 16:40:59;;;;;;;38.70;19.90;;;;;;;2.09;94.16;99002.11;214163;1310;25359;-74
2022/11/28 16:46:05;;;;;;;39.70;20.80;;;;;;;2.02;93.98;99002.83;213980;1310;22470;-74
2022/11/28 16:51:10;;;;;;;55.00;23.00;;;;;;;1.95;94.12;99004.36;214092;1310;22587;-75
2022/11/28 16:56:30;;;;;;;62.80;28.50;;;;;;;1.89;94.09;99000.10;214120;1310;22487;-74
2022/11/28 17:01:33;;;;;;;;;;;;;;;1.77;93.73;99002.06;214164;1310;25183;-73
2022/11/28 17:06:38;;;;;;;62.00;28.70;;;;;;;1.58;93.50;98998.70;214130;1310;24313;-74
2022/11/28 17:11:44;;;;;;;56.30;27.50;;;;;;;1.44;93.75;99001.36;214256;1310;24352;-73
2022/11/28 17:16:46;;;;;;;65.00;29.70;;;;;;;1.33;94.03;98999.52;214019;1310;24307;-74
2022/11/28 17:21:55;;;;;;;56.70;28.90;;;;;;;1.26;94.24;98999.27;213939;1308;22479;-74
2022/11/28 17:26:57;;;;;;;53.80;25.40;;;;;;;1.24;94.43;99000.23;213914;1310;22537;-74
2022/11/28 17:32:00;;;;;;;49.10;24.00;;;;;;;1.21;94.61;99000.71;214037;1310;22463;-73
2022/11/28 17:37:03;;;;;;;50.10;22.40;;;;;;;1.19;94.69;98997.30;213899;1310;25277;-74
2022/11/28 17:42:05;;;;;;;43.50;20.80;;;;;;;1.18;94.95;98992.99;214051;1310;25289;-74
2022/11/28 17:47:07;;;;;;;40.80;19.30;;;;;;;1.17;95.12;98988.59;214014;1310;22487;-74
2022/11/28 17:52:09;;;;;;;40.00;18.60;;;;;;;1.19;95.10;98983.16;214216;1311;25359;-73
2022/11/28 17:57:11;;;;;;;44.10;20.00;;;;;;;1.12;94.92;98983.63;214175;1310;25634;-74
2022/11/28 18:02:13;;;;;;;41.50;19.10;;;;;;;1.07;95.16;98983.61;213833;1310;25296;-75
2022/11/28 18:07:15;;;;;;;42.30;20.40;;;;;;;1.02;95.06;98984.21;214082;1310;25271;-74
2022/11/28 18:12:17;;;;;;;37.10;19.80;;;;;;;0.96;95.16;98985.73;214015;1310;25297;-75
2022/11/28 18:17:20;;;;;;;43.20;22.80;;;;;;;0.90;95.34;98980.81;214011;1310;24090;-73
2022/11/28 18:22:22;;;;;;;50.30;25.40;;;;;;;0.87;95.59;98981.20;213904;1310;22477;-74
2022/11/28 18:27:24;;;;;;;53.50;25.40;;;;;;;0.92;95.81;98975.10;213997;1310;22485;-74
2022/11/28 18:32:26;;;;;;;43.10;22.00;;;;;;;0.96;95.71;98976.56;214080;1306;23801;-72
2022/11/28 18:37:29;;;;;;;50.20;26.70;;;;;;;0.91;95.43;98978.00;214031;1310;22575;-74
2022/11/28 18:42:31;;;;;;;50.90;27.40;;;;;;;0.84;95.57;98979.40;213999;1310;22477;-74
2022/11/28 18:47:35;;;;;;;42.10;22.70;;;;;;;0.87;95.84;98984.77;213905;1310;23545;-74
2022/11/28 18:52:37;;;;;;;41.10;22.10;;;;;;;0.84;95.65;98990.81;214137;1309;22525;-74
2022/11/28 18:57:40;;;;;;;49.90;23.40;;;;;;;0.77;95.60;98991.45;214041;1310;25263;-73
2022/11/28 19:02:42;;;;;;;50.50;24.00;;;;;;;0.66;95.41;98991.76;213920;1310;22609;-75
2022/11/28 19:07:44;;;;;;;51.40;24.10;;;;;;;0.61;95.75;98993.88;214037;1310;24278;-74
2022/11/28 19:12:46;;;;;;;44.80;22.40;;;;;;;0.57;95.71;98993.11;213935;1310;23896;-73
2022/11/28 19:17:48;;;;;;;45.70;23.00;;;;;;;0.52;95.71;98990.52;213961;1310;22493;-75
2022/11/28 19:22:50;;;;;;;52.80;24.40;;;;;;;0.48;95.89;98989.17;214151;1308;22525;-73
2022/11/28 19:27:51;;;;;;;51.70;22.90;;;;;;;0.39;95.70;98989.16;213855;1310;25166;-73
2022/11/28 19:32:55;;;;;;;52.20;25.70;;;;;;;0.31;95.83;98995.35;214072;1310;22545;-74
2022/11/28 19:37:57;;;;;;;49.30;22.50;;;;;;;0.27;95.92;98993.81;213905;1310;24279;-73
2022/11/28 19:42:59;;;;;;;47.20;23.90;;;;;;;0.21;96.04;98994.54;213934;1307;22490;-75
2022/11/28 19:48:01;;;;;;;40.20;19.10;;;;;;;0.11;95.87;98989.68;213981;1310;25528;-74
2022/11/28 19:53:03;;;;;;;52.40;24.10;;;;;;;0.04;96.00;98990.71;213891;1310;23224;-74
2022/11/28 19:58:05;;;;;;;53.70;25.00;;;;;;;-0.04;96.23;98997.12;214039;1310;22501;-74
2022/11/28 20:03:07;;;;;;;85.20;34.60;;;;;;;-0.13;96.32;98996.37;213880;1310;22454;-73
2022/11/28 20:08:09;;;;;;;66.30;29.70;;;;;;;-0.20;96.28;99002.13;213957;1310;25337;-72
2022/11/28 20:13:11;;;;;;;69.70;31.60;;;;;;;-0.27;96.52;99002.25;213981;1310;24243;-74
2022/11/28 20:18:13;;;;;;;57.80;29.40;;;;;;;-0.36;96.31;99011.66;213934;1310;25400;-74
2022/11/28 20:23:15;;;;;;;50.60;24.50;;;;;;;-0.47;96.43;99009.08;214079;1310;22484;-74
2022/11/28 20:28:16;;;;;;;55.30;28.60;;;;;;;-0.55;96.73;99008.55;213987;1310;22473;-75
2022/11/28 20:33:18;;;;;;;70.10;32.40;;;;;;;-0.61;96.81;99006.69;214133;1310;22809;-74
2022/11/28 20:38:20;;;;;;;66.10;32.90;;;;;;;-0.67;96.85;99008.20;213913;1310;23830;-75
2022/11/28 20:43:22;;;;;;;58.50;27.80;;;;;;;-0.73;97.23;99004.59;213930;1310;22477;-75
2022/11/28 20:48:24;;;;;;;62.20;29.10;;;;;;;-0.79;97.06;99008.17;214065;1310;25244;-74
2022/11/28 20:53:26;;;;;;;59.10;27.60;;;;;;;-0.83;97.31;99007.48;213998;1310;23108;-74
2022/11/28 20:58:28;;;;;;;51.90;25.90;;;;;;;-0.88;97.48;99008.81;213934;1310;22735;-73
2022/11/28 21:03:31;;;;;;;55.10;25.50;;;;;;;-0.88;97.64;99013.59;214135;1310;25373;-73
2022/11/28 21:08:33;;;;;;;49.20;23.40;;;;;;;-0.91;97.79;99016.31;214007;1310;22473;-73
2022/11/28 21:13:36;;;;;;;55.20;28.30;;;;;;;-0.97;97.62;99018.77;214119;1310;26509;-75
2022/11/28 21:18:39;;;;;;;58.60;28.50;;;;;;;-1.04;97.74;99019.58;213940;1310;22688;-73
2022/11/28 21:23:43;;;;;;;54.00;25.60;;;;;;;-1.09;97.85;99017.84;214123;1310;25550;-75
2022/11/28 21:28:47;;;;;;;68.50;29.90;;;;;;;-1.12;97.99;99019.65;214140;1310;23083;-75
2022/11/28 21:33:51;;;;;;;80.00;33.90;;;;;;;-1.13;98.15;99027.05;214152;1304;22580;-74
2022/11/28 21:38:55;;;;;;;66.80;29.50;;;;;;;-1.19;98.01;99029.80;214169;1310;25530;-73
2022/11/28 21:43:58;;;;;;;68.00;32.10;;;;;;;-1.25;98.09;99028.02;214200;1310;24390;-74
2022/11/28 21:49:01;;;;;;;70.20;33.70;;;;;;;-1.30;98.36;99029.54;214045;1310;25411;-73
2022/11/28 21:54:03;;;;;;;69.60;32.20;;;;;;;-1.34;98.46;99029.46;214225;1309;24278;-75
2022/11/28 21:59:05;;;;;;;70.70;30.70;;;;;;;-1.40;98.37;99033.27;214150;1310;24212;-74
2022/11/28 22:04:09;;;;;;;63.00;27.80;;;;;;;-1.35;98.85;99032.33;214293;1307;22636;-74
2022/11/28 22:09:15;;;;;;;53.20;24.90;;;;;;;-1.34;98.71;99031.13;214023;1304;22654;-73
2022/11/28 22:14:18;;;;;;;49.20;25.30;;;;;;;-1.34;98.80;99030.96;214068;1307;22498;-73
2022/11/28 22:19:21;;;;;;;51.50;23.10;;;;;;;-1.36;98.72;99024.62;214071;1311;22416;-74
2022/11/28 22:24:23;;;;;;;50.90;24.70;;;;;;;-1.38;98.97;99024.26;214133;1313;22704;-74
2022/11/28 22:29:25;;;;;;;52.00;26.40;;;;;;;-1.39;98.86;99025.46;213922;1312;23804;-73
2022/11/28 22:34:32;;;;;;;53.00;26.20;;;;;;;-1.42;98.94;99028.46;214136;1311;22554;-73
2022/11/28 22:39:40;;;;;;;58.30;28.30;;;;;;;-1.42;99.26;99029.89;213938;1313;163867;-74
2022/11/28 22:44:43;;;;;;;52.10;25.20;;;;;;;-1.44;98.97;99030.94;213966;1312;22527;-74
2022/11/28 22:49:45;;;;;;;59.30;27.20;;;;;;;-1.49;98.98;99029.03;213831;1311;23927;-73
2022/11/28 22:54:49;;;;;;;60.00;27.80;;;;;;;-1.49;99.21;99036.79;214010;1312;25543;-74
2022/11/28 22:59:52;;;;;;;60.50;29.70;;;;;;;-1.51;99.09;99039.30;213995;1312;22516;-73
2022/11/28 23:04:54;;;;;;;63.80;29.90;;;;;;;-1.53;99.24;99036.68;214016;1312;25384;-73
2022/11/28 23:09:56;;;;;;;63.60;30.90;;;;;;;-1.57;99.26;99028.55;214238;1312;25344;-74
2022/11/28 23:14:58;;;;;;;69.50;33.30;;;;;;;-1.60;99.18;99027.79;214060;1310;24258;-74
2022/11/28 23:19:59;;;;;;;72.40;35.00;;;;;;;-1.66;99.27;99024.43;213993;1311;22550;-74
2022/11/28 23:25:01;;;;;;;64.30;33.00;;;;;;;-1.72;99.40;99023.70;213825;1312;22489;-74